createdAt,value
2022-11-16T00:02:13.621Z,5.55
2022-11-16T00:04:40.583Z,5.20
2022-11-16T00:07:07.926Z,5.22
2022-11-16T00:09:35.031Z,5.50
2022-11-16T00:12:04.824Z,5.15
2022-11-16T00:14:34.061Z,5.57
2022-11-16T00:17:01.221Z,5.30
2022-11-16T00:19:28.486Z,4.95
2022-11-16T00:21:55.164Z,5.68
2022-11-16T00:24:23.520Z,5.68
2022-11-16T00:26:50.910Z,5.90
2022-11-16T00:29:20.746Z,7.15
2022-11-16T00:31:48.176Z,6.13
2022-11-16T00:34:15.570Z,5.78
2022-11-16T00:36:42.199Z,6.20
2022-11-16T00:39:12.205Z,5.80
2022-11-16T00:41:39.013Z,6.70
2022-11-16T00:44:05.798Z,6.00
2022-11-16T00:46:32.780Z,5.85
2022-11-16T00:48:59.506Z,5.25
2022-11-16T00:51:26.093Z,4.95
2022-11-16T00:53:52.675Z,6.90
2022-11-16T00:56:19.282Z,4.90
2022-11-16T00:58:45.868Z,5.57
2022-11-16T01:01:12.754Z,6.07
2022-11-16T01:03:39.829Z,6.40
2022-11-16T01:06:12.755Z,5.88
2022-11-16T01:08:40.909Z,7.68
2022-11-16T01:11:26.821Z,6.25
2022-11-16T01:13:54.123Z,5.45
2022-11-16T01:16:22.212Z,6.25
2022-11-16T01:18:50.945Z,4.85
2022-11-16T01:21:18.834Z,6.20
2022-11-16T01:23:45.912Z,4.63
2022-11-16T01:26:12.682Z,5.88
2022-11-16T01:28:39.292Z,7.18
2022-11-16T01:31:06.095Z,7.07
2022-11-16T01:33:32.712Z,6.97
2022-11-16T01:35:59.293Z,5.75
2022-11-16T01:38:29.607Z,7.05
2022-11-16T01:40:56.658Z,5.95
2022-11-16T01:43:25.491Z,4.55
2022-11-16T01:45:52.589Z,5.97
2022-11-16T01:48:30.350Z,5.30
2022-11-16T01:50:57.953Z,5.50
2022-11-16T01:53:24.982Z,5.05
2022-11-16T01:55:52.440Z,5.68
2022-11-16T01:58:23.191Z,5.90
2022-11-16T02:00:50.662Z,6.05
2022-11-16T02:03:19.078Z,6.25
2022-11-16T02:05:51.739Z,6.00
2022-11-16T02:08:55.525Z,6.20
2022-11-16T02:11:27.933Z,6.20
2022-11-16T02:14:31.071Z,5.70
2022-11-16T02:17:28.281Z,5.33
2022-11-16T02:20:33.864Z,3.90
2022-11-16T02:23:23.670Z,5.97
2022-11-16T02:26:11.983Z,5.25
2022-11-16T02:28:56.750Z,4.82
2022-11-16T02:31:28.221Z,5.40
2022-11-16T02:33:57.061Z,5.65
2022-11-16T02:36:25.631Z,5.30
2022-11-16T02:39:04.182Z,5.20
2022-11-16T02:41:35.578Z,5.78
2022-11-16T02:44:08.239Z,5.93
2022-11-16T02:46:41.853Z,7.00
2022-11-16T02:49:12.667Z,5.78
2022-11-16T02:51:40.218Z,6.10
2022-11-16T02:54:14.685Z,5.50
2022-11-16T02:57:03.095Z,6.32
2022-11-16T02:59:36.668Z,6.43
2022-11-16T03:02:11.038Z,6.22
2022-11-16T03:04:49.022Z,7.40
2022-11-16T03:07:20.539Z,6.85
2022-11-16T03:09:50.169Z,6.25
2022-11-16T03:12:24.070Z,6.22
2022-11-16T03:14:54.421Z,5.15
2022-11-16T03:17:28.223Z,4.78
2022-11-16T03:20:20.726Z,4.50
2022-11-16T03:23:13.933Z,5.20
2022-11-16T03:25:47.290Z,4.28
2022-11-16T03:28:17.781Z,6.00
2022-11-16T03:30:52.801Z,4.63
2022-11-16T03:33:25.714Z,6.03
2022-11-16T03:36:11.618Z,6.03
2022-11-16T03:38:41.197Z,5.40
2022-11-16T03:41:10.043Z,5.50
2022-11-16T03:43:39.063Z,4.88
2022-11-16T03:46:06.272Z,5.65
2022-11-16T03:48:37.597Z,4.80
2022-11-16T03:51:05.318Z,5.00
2022-11-16T03:53:32.024Z,4.57
2022-11-16T03:55:58.649Z,3.90
2022-11-16T03:58:25.317Z,5.30
2022-11-16T04:00:52.888Z,5.85
2022-11-16T04:03:19.953Z,5.20
2022-11-16T04:06:06.874Z,5.93
2022-11-16T04:08:52.288Z,5.65
2022-11-16T04:11:40.061Z,5.28
2022-11-16T04:14:33.308Z,5.03
2022-11-16T04:17:18.110Z,5.30
2022-11-16T04:20:03.349Z,5.07
2022-11-16T04:22:56.421Z,4.90
2022-11-16T04:25:30.396Z,6.43
2022-11-16T04:28:16.684Z,6.43
2022-11-16T04:31:07.948Z,6.55
2022-11-16T04:33:53.452Z,6.60
2022-11-16T04:36:38.505Z,6.40
2022-11-16T04:39:05.279Z,6.32
2022-11-16T04:41:50.751Z,7.38
2022-11-16T04:44:17.738Z,6.43
2022-11-16T04:47:03.138Z,6.05
2022-11-16T04:49:29.775Z,6.40
2022-11-16T04:51:56.507Z,6.15
2022-11-16T04:54:23.104Z,6.72
2022-11-16T04:56:49.767Z,6.43
2022-11-16T04:59:16.393Z,6.80
2022-11-16T05:02:01.656Z,6.45
2022-11-16T05:04:28.260Z,6.65
2022-11-16T05:06:54.933Z,7.30
2022-11-16T05:09:21.622Z,7.07
2022-11-16T05:11:48.281Z,6.10
2022-11-16T05:14:14.945Z,6.20
2022-11-16T05:16:41.710Z,6.10
2022-11-16T05:19:27.124Z,6.63
2022-11-16T05:21:53.769Z,5.68
2022-11-16T05:24:35.561Z,6.00
2022-11-16T05:27:08.429Z,6.28
2022-11-16T05:29:35.574Z,5.72
2022-11-16T05:32:02.755Z,5.85
2022-11-16T05:34:29.421Z,6.00
2022-11-16T05:36:56.834Z,5.53
2022-11-16T05:39:23.641Z,7.00
2022-11-16T05:41:50.933Z,8.00
2022-11-16T05:44:17.926Z,6.90
2022-11-16T05:46:45.242Z,6.57
2022-11-16T05:49:12.799Z,6.55
2022-11-16T05:51:41.351Z,8.05
2022-11-16T05:54:08.428Z,8.73
2022-11-16T05:56:35.351Z,9.68
2022-11-16T05:59:02.348Z,10.48
2022-11-16T06:01:29.115Z,9.80
2022-11-16T06:03:55.765Z,8.90
2022-11-16T06:06:22.483Z,9.65
2022-11-16T06:08:49.135Z,9.90
2022-11-16T06:11:15.753Z,8.18
2022-11-16T06:13:42.386Z,9.27
2022-11-16T06:16:09.587Z,8.52
2022-11-16T06:18:41.582Z,8.02
2022-11-16T06:21:09.519Z,7.35
2022-11-16T06:23:36.430Z,7.35
2022-11-16T06:26:03.864Z,7.35
2022-11-16T06:28:30.610Z,7.95
2022-11-16T06:30:57.351Z,9.32
2022-11-16T06:33:24.102Z,8.98
2022-11-16T06:35:50.871Z,10.18
2022-11-16T06:38:20.716Z,8.73
2022-11-16T06:40:52.271Z,9.70
2022-11-16T06:43:19.838Z,8.40
2022-11-16T06:45:50.816Z,8.00
2022-11-16T06:48:18.738Z,7.53
2022-11-16T06:50:47.014Z,7.28
2022-11-16T06:53:13.613Z,8.18
2022-11-16T06:55:40.213Z,8.05
2022-11-16T06:58:06.879Z,8.40
2022-11-16T07:00:33.909Z,8.18
2022-11-16T07:03:03.443Z,8.20
2022-11-16T07:05:31.199Z,8.15
2022-11-16T07:07:58.337Z,8.65
2022-11-16T07:10:25.565Z,9.23
2022-11-16T07:12:52.147Z,8.18
2022-11-16T07:15:19.558Z,8.07
2022-11-16T07:17:46.273Z,6.90
2022-11-16T07:20:13.179Z,7.47
2022-11-16T07:22:39.762Z,7.45
2022-11-16T07:25:07.092Z,7.80
2022-11-16T07:27:33.733Z,7.30
2022-11-16T07:30:02.223Z,8.05
2022-11-16T07:32:31.076Z,8.15
2022-11-16T07:34:59.368Z,6.82
2022-11-16T07:37:26.499Z,7.97
2022-11-16T07:39:53.165Z,8.35
2022-11-16T07:42:19.937Z,8.45
2022-11-16T07:44:46.531Z,6.85
2022-11-16T07:47:13.236Z,7.00
2022-11-16T07:49:39.826Z,7.10
2022-11-16T07:52:09.393Z,5.75
2022-11-16T07:54:36.984Z,6.38
2022-11-16T07:57:03.741Z,7.05
2022-11-16T07:59:30.316Z,6.82
2022-11-16T08:01:57.257Z,6.70
2022-11-16T08:04:23.865Z,6.40
2022-11-16T08:06:51.849Z,7.13
2022-11-16T08:09:18.823Z,6.20
2022-11-16T08:11:47.121Z,6.63
2022-11-16T08:14:14.104Z,7.10
2022-11-16T08:16:40.741Z,7.05
2022-11-16T08:19:07.329Z,6.25
2022-11-16T08:21:34.003Z,6.90
2022-11-16T08:24:00.562Z,6.70
2022-11-16T08:26:27.807Z,6.22
2022-11-16T08:28:56.569Z,6.63
2022-11-16T08:31:26.733Z,5.57
2022-11-16T08:33:53.760Z,6.10
2022-11-16T08:36:20.707Z,5.50
2022-11-16T08:38:48.784Z,5.57
2022-11-16T08:41:16.596Z,4.85
2022-11-16T08:43:44.693Z,5.90
2022-11-16T08:46:11.617Z,5.88
2022-11-16T08:48:38.586Z,6.25
2022-11-16T08:51:22.529Z,5.30
2022-11-16T08:53:50.134Z,5.40
2022-11-16T08:56:18.753Z,5.70
2022-11-16T08:58:52.459Z,8.48
2022-11-16T09:01:24.289Z,6.57
2022-11-16T09:03:51.984Z,7.18
2022-11-16T09:06:19.116Z,5.38
2022-11-16T09:08:46.721Z,5.60
2022-11-16T09:11:16.256Z,4.72
2022-11-16T09:13:44.332Z,4.75
2022-11-16T09:16:11.389Z,4.85
2022-11-16T09:18:38.302Z,5.35
2022-11-16T09:21:05.103Z,5.43
2022-11-16T09:23:31.865Z,6.00
2022-11-16T09:26:02.329Z,6.30
2022-11-16T09:28:29.357Z,5.32
2022-11-16T09:31:00.919Z,5.40
2022-11-16T09:33:30.065Z,5.80
2022-11-16T09:36:01.338Z,5.88
2022-11-16T09:38:40.697Z,5.43
2022-11-16T09:41:26.287Z,4.65
2022-11-16T09:43:55.720Z,5.50
2022-11-16T09:46:49.196Z,4.80
2022-11-16T09:49:35.962Z,4.88
2022-11-16T09:52:08.295Z,4.97
2022-11-16T09:54:39.906Z,5.13
2022-11-16T09:57:12.598Z,5.07
2022-11-16T09:59:52.192Z,5.93
2022-11-16T10:02:18.717Z,5.72
2022-11-16T10:04:58.119Z,5.07
2022-11-16T10:07:37.239Z,5.20
2022-11-16T10:10:04.169Z,5.15
2022-11-16T10:12:43.689Z,4.63
2022-11-16T10:15:16.025Z,4.68
2022-11-16T10:18:29.906Z,4.63
2022-11-16T10:21:03.638Z,6.05
2022-11-16T10:23:54.673Z,7.03
2022-11-16T10:26:41.037Z,7.28
2022-11-16T10:29:46.557Z,6.03
2022-11-16T10:32:28.098Z,5.70
2022-11-16T10:35:03.481Z,4.70
2022-11-16T10:37:32.683Z,5.30
2022-11-16T10:39:59.384Z,5.10
2022-11-16T10:42:37.258Z,5.50
2022-11-16T10:45:28.885Z,5.00
2022-11-16T10:48:06.294Z,5.32
2022-11-16T10:50:35.910Z,5.30
2022-11-16T10:53:02.490Z,6.00
2022-11-16T10:55:29.469Z,5.43
2022-11-16T10:57:59.874Z,5.00
2022-11-16T11:00:36.618Z,5.35
2022-11-16T11:03:03.364Z,5.00
2022-11-16T11:05:30.779Z,5.03
2022-11-16T11:08:03.552Z,4.97
2022-11-16T11:10:36.744Z,4.63
2022-11-16T11:15:32.921Z,5.32
2022-11-16T11:18:23.799Z,5.18
2022-11-16T11:20:58.077Z,5.22
2022-11-16T11:23:26.327Z,4.53
2022-11-16T11:25:58.570Z,4.78
2022-11-16T11:28:36.709Z,4.47
2022-11-16T11:31:11.709Z,4.00
2022-11-16T11:33:43.053Z,5.35
2022-11-16T11:36:09.992Z,4.90
2022-11-16T11:39:00.265Z,4.07
2022-11-16T11:41:49.075Z,4.88
2022-11-16T11:44:17.797Z,5.15
2022-11-16T11:49:49.911Z,4.97
2022-11-16T11:53:00.766Z,4.30
2022-11-16T11:55:27.591Z,4.68
2022-11-16T11:57:55.214Z,4.35
2022-11-16T12:00:22.742Z,3.88
2022-11-16T12:03:07.777Z,4.40
2022-11-16T12:05:46.258Z,4.00
2022-11-16T12:08:14.783Z,4.38
2022-11-16T12:11:16.776Z,4.07
2022-11-16T12:13:57.888Z,3.15
2022-11-16T12:16:24.405Z,2.95
2022-11-16T12:19:04.769Z,2.72
2022-11-16T12:21:49.524Z,3.53
2022-11-16T12:24:54.562Z,3.80
2022-11-16T12:27:39.976Z,3.05
2022-11-16T12:30:17.887Z,3.15
2022-11-16T12:33:13.638Z,3.60
2022-11-16T12:35:54.331Z,3.45
2022-11-16T12:38:43.229Z,3.63
2022-11-16T12:41:44.875Z,4.03
2022-11-16T12:44:17.296Z,4.70
2022-11-16T12:46:52.797Z,3.30
2022-11-16T12:49:25.105Z,2.25
2022-11-16T12:52:00.384Z,1.80
2022-11-16T12:55:04.234Z,2.10
2022-11-16T12:57:44.329Z,1.90
2022-11-16T13:00:16.641Z,2.00
2022-11-16T13:03:12.314Z,1.97
2022-11-16T13:06:05.611Z,2.08
2022-11-16T13:09:16.606Z,2.10
2022-11-16T13:11:52.208Z,2.13
2022-11-16T13:14:38.940Z,2.28
2022-11-16T13:17:07.554Z,2.30
2022-11-16T13:19:39.641Z,1.70
2022-11-16T13:22:19.781Z,1.90
2022-11-16T13:25:06.261Z,1.83
2022-11-16T13:27:58.478Z,2.50
2022-11-16T13:30:33.610Z,2.50
2022-11-16T13:33:27.073Z,2.38
2022-11-16T13:35:53.696Z,2.40
2022-11-16T13:38:52.524Z,2.45
2022-11-16T13:41:43.652Z,2.38
2022-11-16T13:44:20.450Z,2.80
2022-11-16T13:46:58.179Z,2.55
2022-11-16T13:49:49.778Z,2.55
2022-11-16T13:52:23.543Z,2.65
2022-11-16T13:54:54.435Z,2.80
2022-11-16T13:57:26.173Z,2.35
2022-11-16T14:00:01.692Z,2.67
2022-11-16T14:02:45.586Z,2.88
2022-11-16T14:05:12.111Z,3.20
2022-11-16T14:07:47.394Z,2.40
2022-11-16T14:10:49.099Z,2.55
2022-11-16T14:13:45.704Z,2.53
2022-11-16T14:16:15.137Z,2.40
2022-11-16T14:18:42.938Z,2.95
2022-11-16T14:21:32.460Z,2.60
2022-11-16T14:24:28.356Z,2.60
2022-11-16T14:27:06.397Z,2.30
2022-11-16T14:29:51.207Z,2.78
2022-11-16T14:32:22.583Z,2.80
2022-11-16T14:34:52.193Z,2.85
2022-11-16T14:37:21.807Z,2.33
2022-11-16T14:39:50.444Z,2.53
2022-11-16T14:42:18.298Z,2.30
2022-11-16T14:44:45.151Z,2.95
2022-11-16T14:47:24.821Z,2.58
2022-11-16T14:49:52.485Z,2.97
2022-11-16T14:52:26.646Z,2.90
2022-11-16T14:55:00.666Z,2.38
2022-11-16T14:57:27.323Z,2.05
2022-11-16T15:00:22.656Z,2.00
2022-11-16T15:02:59.157Z,2.10
2022-11-16T15:05:35.537Z,2.10
2022-11-16T15:10:49.540Z,2.97
2022-11-16T15:13:24.288Z,3.10
2022-11-16T15:16:15.021Z,3.00
2022-11-16T15:18:41.863Z,3.15
2022-11-16T15:21:22.538Z,2.50
2022-11-16T15:24:15.520Z,2.50
2022-11-16T15:26:38.652Z,2.17
2022-11-16T15:29:05.284Z,2.55
2022-11-16T15:31:31.884Z,2.13
2022-11-16T15:33:58.482Z,2.35
2022-11-16T15:36:41.334Z,2.88
2022-11-16T15:39:23.694Z,2.47
2022-11-16T15:41:51.872Z,2.63
2022-11-16T15:44:21.608Z,2.00
2022-11-16T15:46:53.205Z,2.60
2022-11-16T15:49:53.183Z,10.82
2022-11-16T15:52:42.526Z,4.30
2022-11-16T15:55:21.381Z,3.60
2022-11-16T15:58:02.590Z,3.40
2022-11-16T16:00:31.705Z,3.30
2022-11-16T16:03:05.204Z,3.30
2022-11-16T16:05:39.788Z,4.18
2022-11-16T16:08:24.133Z,3.60
2022-11-16T16:11:12.054Z,3.42
2022-11-16T16:13:41.845Z,3.20
2022-11-16T16:16:28.036Z,2.63
2022-11-16T16:18:58.275Z,3.17
2022-11-16T16:21:28.584Z,3.08
2022-11-16T16:23:56.645Z,3.47
2022-11-16T16:26:23.829Z,2.97
2022-11-16T16:28:51.077Z,3.25
2022-11-16T16:31:19.237Z,3.00
2022-11-16T16:33:46.430Z,2.90
2022-11-16T16:36:13.795Z,2.83
2022-11-16T16:38:40.405Z,3.22
2022-11-16T16:41:07.678Z,2.97
2022-11-16T16:43:34.852Z,3.60
2022-11-16T16:46:03.949Z,3.50
2022-11-16T16:48:30.735Z,3.00
2022-11-16T16:50:57.444Z,4.07
2022-11-16T16:53:24.133Z,4.20
2022-11-16T16:55:50.753Z,4.30
2022-11-16T16:58:17.579Z,3.90
2022-11-16T17:00:44.349Z,3.05
2022-11-16T17:03:11.233Z,3.65
2022-11-16T17:05:38.082Z,4.20
2022-11-16T17:08:04.936Z,4.18
2022-11-16T17:10:31.544Z,3.88
2022-11-16T17:12:58.746Z,3.50
2022-11-16T17:15:25.356Z,4.25
2022-11-16T17:17:52.066Z,3.40
2022-11-16T17:20:18.677Z,3.60
2022-11-16T17:22:46.025Z,3.67
2022-11-16T17:25:12.747Z,4.32
2022-11-16T17:27:39.410Z,4.00
2022-11-16T17:30:07.320Z,3.72
2022-11-16T17:32:33.901Z,3.72
2022-11-16T17:35:00.477Z,3.60
2022-11-16T17:37:27.058Z,4.25
2022-11-16T17:39:53.653Z,4.22
2022-11-16T17:42:20.320Z,4.28
2022-11-16T17:44:46.899Z,6.68
2022-11-16T17:47:13.554Z,7.53
2022-11-16T17:49:40.216Z,6.20
2022-11-16T17:52:07.423Z,5.60
2022-11-16T17:54:34.090Z,6.03
2022-11-16T17:57:00.666Z,5.07
2022-11-16T17:59:29.756Z,5.90
2022-11-16T18:01:58.075Z,4.40
2022-11-16T18:04:24.945Z,5.50
2022-11-16T18:06:51.589Z,3.88
2022-11-16T18:09:18.938Z,3.88
2022-11-16T18:11:45.816Z,3.67
2022-11-16T18:14:12.455Z,3.30
2022-11-16T18:16:42.398Z,4.13
2022-11-16T18:19:10.084Z,6.07
2022-11-16T18:21:40.788Z,4.28
2022-11-16T18:24:08.570Z,5.20
2022-11-16T18:26:35.194Z,5.35
2022-11-16T18:29:01.891Z,5.53
2022-11-16T18:31:29.839Z,5.05
2022-11-16T18:33:56.662Z,5.60
2022-11-16T18:36:23.284Z,7.32
2022-11-16T18:38:50.149Z,6.78
2022-11-16T18:41:20.036Z,5.30
2022-11-16T18:43:58.265Z,5.80
2022-11-16T18:46:27.978Z,4.20
2022-11-16T18:48:55.469Z,4.57
2022-11-16T18:51:23.832Z,5.72
2022-11-16T18:53:50.717Z,7.43
2022-11-16T18:56:17.839Z,5.53
2022-11-16T18:58:52.915Z,4.30
2022-11-16T19:01:22.705Z,3.75
2022-11-16T19:03:49.756Z,3.60
2022-11-16T19:06:17.894Z,5.40
2022-11-16T19:08:49.011Z,4.13
2022-11-16T19:11:20.477Z,6.00
2022-11-16T19:13:53.335Z,3.97
2022-11-16T19:16:19.940Z,2.83
2022-11-16T19:18:46.517Z,3.00
2022-11-16T19:21:15.383Z,3.10
2022-11-16T19:23:44.567Z,2.20
2022-11-16T19:26:13.153Z,2.70
2022-11-16T19:28:42.134Z,3.65
2022-11-16T19:31:09.839Z,7.07
2022-11-16T19:33:37.349Z,8.63
2022-11-16T19:36:16.252Z,7.15
2022-11-16T19:38:43.340Z,7.05
2022-11-16T19:41:11.992Z,11.05
2022-11-16T19:43:38.907Z,24.92
2022-11-16T19:46:08.338Z,4.43
2022-11-16T19:48:35.498Z,3.40
2022-11-16T19:51:09.158Z,4.20
2022-11-16T19:53:36.836Z,3.55
2022-11-16T19:56:04.501Z,2.90
2022-11-16T19:58:32.140Z,2.55
2022-11-16T20:01:06.310Z,2.35
2022-11-16T20:03:34.101Z,2.40
2022-11-16T20:06:16.068Z,2.60
2022-11-16T20:08:46.504Z,2.67
2022-11-16T20:11:15.299Z,7.53
2022-11-16T20:13:42.670Z,3.92
2022-11-16T20:16:11.177Z,3.00
2022-11-16T20:18:39.392Z,3.17
2022-11-16T20:21:06.871Z,2.88
2022-11-16T20:23:35.168Z,3.05
2022-11-16T20:26:06.248Z,2.88
2022-11-16T20:28:37.396Z,2.63
2022-11-16T20:31:08.120Z,4.82
2022-11-16T20:33:35.135Z,3.15
2022-11-16T20:36:07.687Z,2.50
2022-11-16T20:38:35.688Z,3.40
2022-11-16T20:41:16.336Z,2.80
2022-11-16T20:43:44.039Z,2.88
2022-11-16T20:46:15.705Z,2.95
2022-11-16T20:48:43.247Z,2.53
2022-11-16T20:51:15.267Z,2.83
2022-11-16T20:53:41.846Z,2.40
2022-11-16T20:56:10.530Z,4.10
2022-11-16T20:58:37.800Z,13.20
2022-11-16T21:01:07.124Z,6.53
2022-11-16T21:03:34.263Z,3.42
2022-11-16T21:06:01.477Z,3.33
2022-11-16T21:08:29.693Z,3.28
2022-11-16T21:10:56.912Z,3.03
2022-11-16T21:13:42.222Z,3.33
2022-11-16T21:16:15.154Z,2.70
2022-11-16T21:18:42.230Z,15.52
2022-11-16T21:21:13.726Z,23.40
2022-11-16T21:23:51.332Z,23.25
2022-11-16T21:26:26.290Z,8.98
2022-11-16T21:28:53.669Z,5.22
2022-11-16T21:31:25.513Z,4.40
2022-11-16T21:33:53.099Z,3.40
2022-11-16T21:36:21.969Z,4.65
2022-11-16T21:38:48.907Z,3.90
2022-11-16T21:41:17.106Z,3.20
2022-11-16T21:43:44.304Z,3.33
2022-11-16T21:46:15.802Z,3.67
2022-11-16T21:48:42.703Z,3.58
2022-11-16T21:51:11.809Z,3.95
2022-11-16T21:53:38.871Z,4.00
2022-11-16T21:56:07.297Z,3.20
2022-11-16T21:58:34.182Z,3.20
2022-11-16T22:01:02.144Z,3.72
2022-11-16T22:03:31.538Z,3.53
2022-11-16T22:06:18.990Z,2.97
2022-11-16T22:08:46.833Z,3.67
2022-11-16T22:11:14.559Z,3.08
2022-11-16T22:13:41.455Z,3.60
2022-11-16T22:16:10.784Z,3.22
2022-11-16T22:18:37.729Z,3.60
2022-11-16T22:21:05.367Z,3.00
2022-11-16T22:23:32.469Z,3.95
2022-11-16T22:26:10.357Z,3.78
2022-11-16T22:28:37.569Z,3.78
2022-11-16T22:31:12.863Z,3.65
2022-11-16T22:33:40.237Z,3.25
2022-11-16T22:36:09.360Z,3.72
2022-11-16T22:38:36.654Z,3.83
2022-11-16T22:41:03.839Z,3.80
2022-11-16T22:43:31.725Z,2.90
2022-11-16T22:46:00.000Z,3.28
2022-11-16T22:48:37.273Z,3.72
2022-11-16T22:51:27.990Z,3.08
2022-11-16T22:54:00.272Z,2.72
2022-11-16T22:56:28.144Z,3.10
2022-11-16T22:58:55.864Z,4.45
2022-11-16T23:01:23.256Z,5.18
2022-11-16T23:03:50.553Z,4.55
2022-11-16T23:06:17.584Z,3.70
2022-11-16T23:08:44.497Z,3.75
2022-11-16T23:11:32.583Z,3.60
2022-11-16T23:14:18.341Z,4.05
2022-11-16T23:16:45.416Z,3.30
2022-11-16T23:19:32.966Z,3.58
2022-11-16T23:22:18.509Z,3.80
2022-11-16T23:25:04.201Z,3.30
2022-11-16T23:28:19.971Z,3.63
2022-11-16T23:30:46.540Z,3.33
2022-11-16T23:33:13.267Z,3.13
2022-11-16T23:35:39.842Z,4.10
2022-11-16T23:38:07.533Z,3.83
2022-11-16T23:40:37.199Z,3.90
2022-11-16T23:43:43.152Z,4.10
2022-11-16T23:46:09.708Z,4.72
2022-11-16T23:48:36.279Z,4.00
2022-11-16T23:51:02.865Z,3.75
2022-11-16T23:53:29.446Z,4.03
2022-11-16T23:56:05.766Z,4.32
2022-11-16T23:58:32.850Z,4.18
